sensor_id;sensor_type;location;lat;lon;timestamp;pressure;altitude;pressure_sealevel;temperature;humidity
24752;BME280;27246;52.376;4.628;2024-01-15T00:00:39;100229.22;;;5.94;67.80
24752;BME280;27246;52.376;4.628;2024-01-15T00:05:42;100220.06;;;5.77;69.84
24752;BME280;27246;52.376;4.628;2024-01-15T00:10:43;100215.34;;;5.87;69.14
24752;BME280;27246;52.376;4.628;2024-01-15T00:15:45;100207.00;;;5.89;68.30
24752;BME280;27246;52.376;4.628;2024-01-15T00:20:47;100205.84;;;5.65;69.19
24752;BME280;27246;52.376;4.628;2024-01-15T00:25:51;100203.34;;;5.72;67.42
24752;BME280;27246;52.376;4.628;2024-01-15T00:30:53;100195.03;;;5.81;62.69
24752;BME280;27246;52.376;4.628;2024-01-15T00:35:55;100190.78;;;5.87;62.98
24752;BME280;27246;52.376;4.628;2024-01-15T00:40:56;100185.94;;;5.99;63.11
24752;BME280;27246;52.376;4.628;2024-01-15T00:46:02;100171.59;;;5.97;64.97
24752;BME280;27246;52.376;4.628;2024-01-15T00:51:04;100171.66;;;5.79;68.44
24752;BME280;27246;52.376;4.628;2024-01-15T00:56:06;100172.47;;;6.14;70.56
24752;BME280;27246;52.376;4.628;2024-01-15T01:01:07;100170.19;;;5.58;73.14
24752;BME280;27246;52.376;4.628;2024-01-15T01:06:09;100169.13;;;5.51;74.21
24752;BME280;27246;52.376;4.628;2024-01-15T01:11:15;100147.72;;;5.30;75.72
24752;BME280;27246;52.376;4.628;2024-01-15T01:16:17;100148.91;;;5.28;75.41
24752;BME280;27246;52.376;4.628;2024-01-15T01:21:19;100153.19;;;5.30;74.64
24752;BME280;27246;52.376;4.628;2024-01-15T01:26:21;100148.97;;;5.10;76.19
24752;BME280;27246;52.376;4.628;2024-01-15T01:31:23;100133.50;;;5.18;77.49
24752;BME280;27246;52.376;4.628;2024-01-15T01:36:25;100142.72;;;5.17;78.87
24752;BME280;27246;52.376;4.628;2024-01-15T01:41:27;100161.13;;;5.84;79.27
24752;BME280;27246;52.376;4.628;2024-01-15T01:46:29;100160.94;;;5.51;80.56
24752;BME280;27246;52.376;4.628;2024-01-15T01:51:31;100151.72;;;5.78;76.44
24752;BME280;27246;52.376;4.628;2024-01-15T01:56:33;100140.06;;;5.34;78.92
24752;BME280;27246;52.376;4.628;2024-01-15T02:01:36;100139.03;;;5.35;78.51
24752;BME280;27246;52.376;4.628;2024-01-15T02:06:38;100130.09;;;5.16;79.93
24752;BME280;27246;52.376;4.628;2024-01-15T02:11:40;100132.50;;;5.19;81.90
24752;BME280;27246;52.376;4.628;2024-01-15T02:16:42;100141.25;;;5.31;82.88
24752;BME280;27246;52.376;4.628;2024-01-15T02:21:44;100124.59;;;5.43;81.26
24752;BME280;27246;52.376;4.628;2024-01-15T02:26:46;100124.41;;;5.36;76.96
24752;BME280;27246;52.376;4.628;2024-01-15T02:31:48;100127.63;;;5.31;76.03
24752;BME280;27246;52.376;4.628;2024-01-15T02:36:50;100127.91;;;5.54;73.33
24752;BME280;27246;52.376;4.628;2024-01-15T02:41:52;100124.84;;;5.57;72.44
24752;BME280;27246;52.376;4.628;2024-01-15T02:46:53;100130.72;;;5.79;71.01
24752;BME280;27246;52.376;4.628;2024-01-15T02:51:55;100137.91;;;5.80;69.32
24752;BME280;27246;52.376;4.628;2024-01-15T02:56:57;100142.13;;;6.09;70.55
24752;BME280;27246;52.376;4.628;2024-01-15T03:01:59;100145.16;;;6.06;74.13
24752;BME280;27246;52.376;4.628;2024-01-15T03:07:01;100143.34;;;5.72;74.80
24752;BME280;27246;52.376;4.628;2024-01-15T03:12:03;100117.44;;;5.07;78.44
24752;BME280;27246;52.376;4.628;2024-01-15T03:17:05;100107.19;;;5.01;80.63
24752;BME280;27246;52.376;4.628;2024-01-15T03:22:07;100114.72;;;5.07;81.36
24752;BME280;27246;52.376;4.628;2024-01-15T03:27:10;100108.72;;;5.04;81.09
24752;BME280;27246;52.376;4.628;2024-01-15T03:32:12;100105.59;;;4.98;80.78
24752;BME280;27246;52.376;4.628;2024-01-15T03:37:14;100090.19;;;5.07;81.19
24752;BME280;27246;52.376;4.628;2024-01-15T03:42:16;100092.25;;;5.13;81.76
24752;BME280;27246;52.376;4.628;2024-01-15T03:47:17;100090.50;;;5.04;82.90
24752;BME280;27246;52.376;4.628;2024-01-15T03:52:19;100092.66;;;5.27;82.18
24752;BME280;27246;52.376;4.628;2024-01-15T03:57:21;100108.59;;;5.82;81.82
24752;BME280;27246;52.376;4.628;2024-01-15T04:02:23;100093.88;;;5.32;83.02
24752;BME280;27246;52.376;4.628;2024-01-15T04:07:24;100085.94;;;4.87;84.25
24752;BME280;27246;52.376;4.628;2024-01-15T04:12:26;100083.31;;;4.95;84.17
24752;BME280;27246;52.376;4.628;2024-01-15T04:17:28;100067.06;;;4.85;84.16
24752;BME280;27246;52.376;4.628;2024-01-15T04:22:30;100062.91;;;4.73;83.86
24752;BME280;27246;52.376;4.628;2024-01-15T04:27:32;100057.25;;;4.74;83.29
24752;BME280;27246;52.376;4.628;2024-01-15T04:32:34;100048.25;;;4.74;82.32
24752;BME280;27246;52.376;4.628;2024-01-15T04:37:35;100052.56;;;4.85;81.05
24752;BME280;27246;52.376;4.628;2024-01-15T04:42:37;100049.19;;;4.91;80.98
24752;BME280;27246;52.376;4.628;2024-01-15T04:47:39;100054.44;;;4.84;80.91
24752;BME280;27246;52.376;4.628;2024-01-15T04:52:41;100040.47;;;5.13;81.49
24752;BME280;27246;52.376;4.628;2024-01-15T04:57:43;100019.06;;;4.92;81.91
24752;BME280;27246;52.376;4.628;2024-01-15T05:02:45;100027.25;;;4.92;83.67
24752;BME280;27246;52.376;4.628;2024-01-15T05:07:47;100025.06;;;4.96;84.65
24752;BME280;27246;52.376;4.628;2024-01-15T05:12:49;100022.31;;;4.96;85.40
24752;BME280;27246;52.376;4.628;2024-01-15T05:17:51;100012.72;;;5.18;84.38
24752;BME280;27246;52.376;4.628;2024-01-15T05:22:53;100018.09;;;5.44;81.02
24752;BME280;27246;52.376;4.628;2024-01-15T05:27:55;100014.75;;;5.16;75.54
24752;BME280;27246;52.376;4.628;2024-01-15T05:32:56;100016.66;;;5.24;77.50
24752;BME280;27246;52.376;4.628;2024-01-15T05:37:59;100000.97;;;5.17;77.68
24752;BME280;27246;52.376;4.628;2024-01-15T05:43:01;100015.97;;;5.21;76.92
24752;BME280;27246;52.376;4.628;2024-01-15T05:48:03;100018.16;;;5.60;75.56
24752;BME280;27246;52.376;4.628;2024-01-15T05:53:05;100023.28;;;5.21;74.59
24752;BME280;27246;52.376;4.628;2024-01-15T05:58:07;100017.44;;;5.08;75.72
24752;BME280;27246;52.376;4.628;2024-01-15T06:03:09;100003.00;;;5.15;74.27
24752;BME280;27246;52.376;4.628;2024-01-15T06:08:11;100008.81;;;5.20;71.75
24752;BME280;27246;52.376;4.628;2024-01-15T06:13:13;100015.66;;;5.33;72.79
24752;BME280;27246;52.376;4.628;2024-01-15T06:18:15;100029.19;;;6.43;75.01
24752;BME280;27246;52.376;4.628;2024-01-15T06:23:17;100017.28;;;5.09;78.17
24752;BME280;27246;52.376;4.628;2024-01-15T06:28:22;100016.19;;;4.94;82.30
24752;BME280;27246;52.376;4.628;2024-01-15T06:33:24;100021.84;;;5.00;83.34
24752;BME280;27246;52.376;4.628;2024-01-15T06:38:26;100016.56;;;4.99;83.46
24752;BME280;27246;52.376;4.628;2024-01-15T06:43:28;100020.41;;;5.22;82.15
24752;BME280;27246;52.376;4.628;2024-01-15T06:48:29;100014.13;;;4.61;79.91
24752;BME280;27246;52.376;4.628;2024-01-15T06:53:31;100009.81;;;4.77;80.61
24752;BME280;27246;52.376;4.628;2024-01-15T06:58:33;100023.03;;;5.40;79.72
24752;BME280;27246;52.376;4.628;2024-01-15T07:03:35;100032.59;;;5.45;77.71
24752;BME280;27246;52.376;4.628;2024-01-15T07:08:38;100020.91;;;5.18;77.08
24752;BME280;27246;52.376;4.628;2024-01-15T07:13:39;100022.28;;;4.88;77.44
24752;BME280;27246;52.376;4.628;2024-01-15T07:18:41;100014.81;;;4.64;78.93
24752;BME280;27246;52.376;4.628;2024-01-15T07:23:43;100001.06;;;4.65;79.48
24752;BME280;27246;52.376;4.628;2024-01-15T07:28:45;99996.66;;;4.72;79.66
24752;BME280;27246;52.376;4.628;2024-01-15T07:33:47;100017.94;;;5.03;75.82
24752;BME280;27246;52.376;4.628;2024-01-15T07:38:49;100025.41;;;6.35;76.64
24752;BME280;27246;52.376;4.628;2024-01-15T07:43:50;100036.06;;;5.20;79.45
24752;BME280;27246;52.376;4.628;2024-01-15T07:48:52;100036.22;;;5.61;78.73
24752;BME280;27246;52.376;4.628;2024-01-15T07:53:58;100019.28;;;4.99;76.59
24752;BME280;27246;52.376;4.628;2024-01-15T07:59:00;100022.03;;;4.73;76.62
24752;BME280;27246;52.376;4.628;2024-01-15T08:04:01;100025.44;;;4.49;78.16
24752;BME280;27246;52.376;4.628;2024-01-15T08:09:04;100023.53;;;4.41;79.59
24752;BME280;27246;52.376;4.628;2024-01-15T08:14:06;100017.97;;;4.51;80.98
24752;BME280;27246;52.376;4.628;2024-01-15T08:19:08;100027.19;;;4.84;78.40
24752;BME280;27246;52.376;4.628;2024-01-15T08:24:11;100021.84;;;4.48;80.96
24752;BME280;27246;52.376;4.628;2024-01-15T08:29:13;100011.25;;;4.37;81.67
24752;BME280;27246;52.376;4.628;2024-01-15T08:34:17;100009.22;;;4.39;81.23
24752;BME280;27246;52.376;4.628;2024-01-15T08:39:19;100002.63;;;5.10;75.85
24752;BME280;27246;52.376;4.628;2024-01-15T08:44:22;100014.81;;;5.32;74.58
24752;BME280;27246;52.376;4.628;2024-01-15T08:49:24;100026.06;;;5.29;75.11
24752;BME280;27246;52.376;4.628;2024-01-15T08:54:26;100019.44;;;6.07;76.71
24752;BME280;27246;52.376;4.628;2024-01-15T08:59:28;100021.47;;;5.30;73.70
24752;BME280;27246;52.376;4.628;2024-01-15T09:04:33;100031.84;;;5.85;73.38
24752;BME280;27246;52.376;4.628;2024-01-15T09:09:35;100043.78;;;5.76;71.89
24752;BME280;27246;52.376;4.628;2024-01-15T09:14:37;100024.97;;;5.14;71.96
24752;BME280;27246;52.376;4.628;2024-01-15T09:19:39;100014.19;;;5.04;72.83
24752;BME280;27246;52.376;4.628;2024-01-15T09:24:52;100034.31;;;5.03;74.90
24752;BME280;27246;52.376;4.628;2024-01-15T09:29:54;100034.94;;;4.97;77.17
24752;BME280;27246;52.376;4.628;2024-01-15T09:34:59;100034.28;;;5.96;76.24
24752;BME280;27246;52.376;4.628;2024-01-15T09:40:08;100030.31;;;5.24;77.01
24752;BME280;27246;52.376;4.628;2024-01-15T09:45:18;100038.25;;;5.17;79.39
24752;BME280;27246;52.376;4.628;2024-01-15T09:50:32;100031.47;;;5.21;79.71
24752;BME280;27246;52.376;4.628;2024-01-15T09:55:36;100034.81;;;5.07;80.88
24752;BME280;27246;52.376;4.628;2024-01-15T10:00:44;100044.69;;;5.08;80.89
24752;BME280;27246;52.376;4.628;2024-01-15T10:05:46;100033.13;;;5.56;76.23
24752;BME280;27246;52.376;4.628;2024-01-15T10:10:49;100070.91;;;5.43;75.01
24752;BME280;27246;52.376;4.628;2024-01-15T10:15:52;100075.09;;;6.14;76.22
24752;BME280;27246;52.376;4.628;2024-01-15T10:20:54;100087.75;;;5.73;75.03
24752;BME280;27246;52.376;4.628;2024-01-15T10:25:57;100076.56;;;5.07;77.30
24752;BME280;27246;52.376;4.628;2024-01-15T10:31:05;100062.44;;;5.12;78.08
24752;BME280;27246;52.376;4.628;2024-01-15T10:36:09;100080.50;;;4.87;79.68
24752;BME280;27246;52.376;4.628;2024-01-15T10:41:12;100088.78;;;5.72;78.34
24752;BME280;27246;52.376;4.628;2024-01-15T10:46:14;100101.03;;;6.76;78.86
24752;BME280;27246;52.376;4.628;2024-01-15T10:51:16;100105.25;;;5.96;77.13
24752;BME280;27246;52.376;4.628;2024-01-15T10:56:18;100105.00;;;5.47;76.51
24752;BME280;27246;52.376;4.628;2024-01-15T11:01:20;100106.59;;;5.15;77.14
24752;BME280;27246;52.376;4.628;2024-01-15T11:06:24;100105.84;;;5.05;77.82
24752;BME280;27246;52.376;4.628;2024-01-15T11:11:26;100097.22;;;4.92;78.89
24752;BME280;27246;52.376;4.628;2024-01-15T11:16:57;100103.53;;;4.92;78.47
24752;BME280;27246;52.376;4.628;2024-01-15T11:22:00;100110.22;;;5.67;75.35
24752;BME280;27246;52.376;4.628;2024-01-15T11:27:03;100120.09;;;5.59;73.97
24752;BME280;27246;52.376;4.628;2024-01-15T11:32:08;100110.59;;;6.23;71.66
24752;BME280;27246;52.376;4.628;2024-01-15T11:37:11;100124.97;;;5.90;73.57
24752;BME280;27246;52.376;4.628;2024-01-15T11:42:15;100127.13;;;5.70;75.80
24752;BME280;27246;52.376;4.628;2024-01-15T11:47:40;100121.66;;;5.70;72.07
24752;BME280;27246;52.376;4.628;2024-01-15T11:52:59;100120.72;;;5.53;72.40
24752;BME280;27246;52.376;4.628;2024-01-15T11:58:10;100125.25;;;5.36;73.39
24752;BME280;27246;52.376;4.628;2024-01-15T12:03:12;100119.06;;;5.26;75.88
24752;BME280;27246;52.376;4.628;2024-01-15T12:08:14;100149.84;;;5.45;77.36
24752;BME280;27246;52.376;4.628;2024-01-15T12:13:16;100144.50;;;6.20;73.27
24752;BME280;27246;52.376;4.628;2024-01-15T12:18:19;100147.56;;;5.66;69.78
24752;BME280;27246;52.376;4.628;2024-01-15T12:23:23;100150.50;;;5.81;71.12
24752;BME280;27246;52.376;4.628;2024-01-15T12:28:27;100154.41;;;5.70;68.43
24752;BME280;27246;52.376;4.628;2024-01-15T12:33:36;100149.00;;;5.44;67.03
24752;BME280;27246;52.376;4.628;2024-01-15T12:38:38;100145.28;;;5.53;66.91
24752;BME280;27246;52.376;4.628;2024-01-15T12:43:40;100152.63;;;5.95;68.37
24752;BME280;27246;52.376;4.628;2024-01-15T12:48:42;100151.88;;;5.43;67.11
24752;BME280;27246;52.376;4.628;2024-01-15T12:53:44;100144.41;;;5.87;66.99
24752;BME280;27246;52.376;4.628;2024-01-15T12:58:46;100172.94;;;5.58;66.79
24752;BME280;27246;52.376;4.628;2024-01-15T13:03:48;100163.50;;;5.87;67.64
24752;BME280;27246;52.376;4.628;2024-01-15T13:08:50;100159.34;;;6.09;68.00
24752;BME280;27246;52.376;4.628;2024-01-15T13:13:52;100164.31;;;5.79;70.69
24752;BME280;27246;52.376;4.628;2024-01-15T13:18:54;100165.53;;;6.28;67.49
24752;BME280;27246;52.376;4.628;2024-01-15T13:23:56;100162.00;;;7.09;66.08
24752;BME280;27246;52.376;4.628;2024-01-15T13:28:59;100161.44;;;6.32;58.13
24752;BME280;27246;52.376;4.628;2024-01-15T13:34:00;100177.34;;;6.45;57.59
24752;BME280;27246;52.376;4.628;2024-01-15T13:39:02;100179.56;;;6.41;58.69
24752;BME280;27246;52.376;4.628;2024-01-15T13:44:04;100179.75;;;6.72;62.04
24752;BME280;27246;52.376;4.628;2024-01-15T13:49:06;100185.06;;;7.07;60.88
24752;BME280;27246;52.376;4.628;2024-01-15T13:54:09;100201.13;;;6.93;58.71
24752;BME280;27246;52.376;4.628;2024-01-15T13:59:11;100192.75;;;6.87;59.33
24752;BME280;27246;52.376;4.628;2024-01-15T14:04:13;100212.56;;;7.21;64.93
24752;BME280;27246;52.376;4.628;2024-01-15T14:09:15;100224.16;;;6.58;61.78
24752;BME280;27246;52.376;4.628;2024-01-15T14:14:17;100219.75;;;6.06;55.85
24752;BME280;27246;52.376;4.628;2024-01-15T14:19:19;100221.81;;;7.12;60.72
24752;BME280;27246;52.376;4.628;2024-01-15T14:24:23;100235.16;;;7.07;58.16
24752;BME280;27246;52.376;4.628;2024-01-15T14:29:25;100243.84;;;6.19;57.38
24752;BME280;27246;52.376;4.628;2024-01-15T14:34:28;100245.38;;;6.21;58.44
24752;BME280;27246;52.376;4.628;2024-01-15T14:39:30;100244.66;;;6.70;59.67
24752;BME280;27246;52.376;4.628;2024-01-15T14:44:35;100248.00;;;6.39;58.36
24752;BME280;27246;52.376;4.628;2024-01-15T14:49:39;100252.03;;;6.19;58.29
24752;BME280;27246;52.376;4.628;2024-01-15T14:54:42;100258.38;;;7.03;59.28
24752;BME280;27246;52.376;4.628;2024-01-15T14:59:45;100266.22;;;6.98;58.90
24752;BME280;27246;52.376;4.628;2024-01-15T15:04:47;100279.56;;;7.50;65.46
24752;BME280;27246;52.376;4.628;2024-01-15T15:09:51;100271.38;;;6.34;60.72
24752;BME280;27246;52.376;4.628;2024-01-15T15:14:53;100295.00;;;6.51;66.27
24752;BME280;27246;52.376;4.628;2024-01-15T15:20:08;100287.66;;;6.60;68.74
24752;BME280;27246;52.376;4.628;2024-01-15T15:25:10;100288.63;;;6.34;65.29
24752;BME280;27246;52.376;4.628;2024-01-15T15:30:13;100302.88;;;6.20;62.65
24752;BME280;27246;52.376;4.628;2024-01-15T15:35:15;100314.94;;;6.09;66.66
24752;BME280;27246;52.376;4.628;2024-01-15T15:40:18;100313.97;;;6.18;70.00
24752;BME280;27246;52.376;4.628;2024-01-15T15:45:20;100319.56;;;6.09;70.29
24752;BME280;27246;52.376;4.628;2024-01-15T15:50:22;100323.44;;;5.80;69.68
24752;BME280;27246;52.376;4.628;2024-01-15T15:55:24;100328.56;;;5.57;69.34
24752;BME280;27246;52.376;4.628;2024-01-15T16:00:25;100337.59;;;5.57;70.00
24752;BME280;27246;52.376;4.628;2024-01-15T16:05:27;100355.91;;;5.91;69.48
24752;BME280;27246;52.376;4.628;2024-01-15T16:10:43;100355.50;;;5.96;70.12
24752;BME280;27246;52.376;4.628;2024-01-15T16:15:47;100368.16;;;6.05;70.14
24752;BME280;27246;52.376;4.628;2024-01-15T16:20:50;100368.75;;;5.73;69.56
24752;BME280;27246;52.376;4.628;2024-01-15T16:26:11;100388.00;;;6.15;69.77
24752;BME280;27246;52.376;4.628;2024-01-15T16:31:14;100381.91;;;6.56;69.34
24752;BME280;27246;52.376;4.628;2024-01-15T16:36:16;100378.91;;;5.63;69.79
24752;BME280;27246;52.376;4.628;2024-01-15T16:41:19;100381.97;;;5.41;65.60
24752;BME280;27246;52.376;4.628;2024-01-15T16:46:20;100392.88;;;5.41;63.72
24752;BME280;27246;52.376;4.628;2024-01-15T16:51:23;100405.47;;;5.25;64.95
24752;BME280;27246;52.376;4.628;2024-01-15T16:56:25;100402.53;;;5.72;64.93
24752;BME280;27246;52.376;4.628;2024-01-15T17:01:27;100416.13;;;5.90;66.02
24752;BME280;27246;52.376;4.628;2024-01-15T17:06:29;100430.06;;;6.23;65.86
24752;BME280;27246;52.376;4.628;2024-01-15T17:11:32;100429.38;;;5.85;63.95
24752;BME280;27246;52.376;4.628;2024-01-15T17:16:33;100426.34;;;6.32;65.90
24752;BME280;27246;52.376;4.628;2024-01-15T17:21:41;100424.63;;;6.05;64.55
24752;BME280;27246;52.376;4.628;2024-01-15T17:26:44;100430.03;;;5.60;60.24
24752;BME280;27246;52.376;4.628;2024-01-15T17:31:46;100436.25;;;5.53;60.10
24752;BME280;27246;52.376;4.628;2024-01-15T17:36:48;100430.44;;;5.66;59.53
24752;BME280;27246;52.376;4.628;2024-01-15T17:41:49;100439.13;;;5.51;60.66
24752;BME280;27246;52.376;4.628;2024-01-15T17:46:51;100450.06;;;5.69;61.88
24752;BME280;27246;52.376;4.628;2024-01-15T17:51:53;100447.50;;;6.30;63.75
24752;BME280;27246;52.376;4.628;2024-01-15T17:56:55;100455.06;;;5.74;65.11
24752;BME280;27246;52.376;4.628;2024-01-15T18:01:57;100458.25;;;5.69;65.45
24752;BME280;27246;52.376;4.628;2024-01-15T18:06:58;100469.41;;;5.76;65.60
24752;BME280;27246;52.376;4.628;2024-01-15T18:12:00;100477.03;;;5.54;65.26
24752;BME280;27246;52.376;4.628;2024-01-15T18:17:03;100474.31;;;5.90;65.64
24752;BME280;27246;52.376;4.628;2024-01-15T18:22:08;100486.56;;;5.86;65.38
24752;BME280;27246;52.376;4.628;2024-01-15T18:27:11;100500.34;;;5.85;66.74
24752;BME280;27246;52.376;4.628;2024-01-15T18:32:13;100512.97;;;5.68;67.73
24752;BME280;27246;52.376;4.628;2024-01-15T18:37:14;100528.34;;;6.40;68.91
24752;BME280;27246;52.376;4.628;2024-01-15T18:42:17;100549.47;;;6.38;69.10
24752;BME280;27246;52.376;4.628;2024-01-15T18:47:19;100539.69;;;5.46;70.60
24752;BME280;27246;52.376;4.628;2024-01-15T18:52:21;100533.56;;;5.07;71.72
24752;BME280;27246;52.376;4.628;2024-01-15T18:57:23;100530.75;;;4.89;72.50
24752;BME280;27246;52.376;4.628;2024-01-15T19:02:25;100548.00;;;4.79;72.85
24752;BME280;27246;52.376;4.628;2024-01-15T19:07:26;100549.00;;;4.78;71.75
24752;BME280;27246;52.376;4.628;2024-01-15T19:12:29;100543.56;;;4.78;71.43
24752;BME280;27246;52.376;4.628;2024-01-15T19:17:30;100543.56;;;4.78;69.55
24752;BME280;27246;52.376;4.628;2024-01-15T19:22:32;100540.06;;;4.96;68.86
24752;BME280;27246;52.376;4.628;2024-01-15T19:27:34;100551.09;;;4.94;68.51
24752;BME280;27246;52.376;4.628;2024-01-15T19:32:37;100543.59;;;5.06;66.97
24752;BME280;27246;52.376;4.628;2024-01-15T19:37:39;100553.00;;;5.21;66.73
24752;BME280;27246;52.376;4.628;2024-01-15T19:42:41;100569.56;;;6.55;68.73
24752;BME280;27246;52.376;4.628;2024-01-15T19:47:43;100601.13;;;5.68;69.42
24752;BME280;27246;52.376;4.628;2024-01-15T19:52:45;100592.34;;;5.47;70.99
24752;BME280;27246;52.376;4.628;2024-01-15T19:57:47;100601.09;;;5.50;72.01
24752;BME280;27246;52.376;4.628;2024-01-15T20:02:50;100612.53;;;5.26;73.18
24752;BME280;27246;52.376;4.628;2024-01-15T20:07:52;100612.28;;;5.47;74.23
24752;BME280;27246;52.376;4.628;2024-01-15T20:12:54;100609.03;;;4.96;75.23
24752;BME280;27246;52.376;4.628;2024-01-15T20:17:57;100611.06;;;4.85;74.55
24752;BME280;27246;52.376;4.628;2024-01-15T20:22:59;100606.19;;;4.88;74.60
24752;BME280;27246;52.376;4.628;2024-01-15T20:28:02;100614.84;;;4.74;73.17
24752;BME280;27246;52.376;4.628;2024-01-15T20:33:04;100639.47;;;4.82;71.10
24752;BME280;27246;52.376;4.628;2024-01-15T20:38:06;100636.19;;;4.78;68.26
24752;BME280;27246;52.376;4.628;2024-01-15T20:43:08;100634.00;;;5.01;68.03
24752;BME280;27246;52.376;4.628;2024-01-15T20:48:09;100645.78;;;4.92;67.82
24752;BME280;27246;52.376;4.628;2024-01-15T20:53:11;100640.34;;;4.82;69.16
24752;BME280;27246;52.376;4.628;2024-01-15T20:58:20;100651.53;;;4.89;68.20
24752;BME280;27246;52.376;4.628;2024-01-15T21:03:22;100634.59;;;4.86;67.66
24752;BME280;27246;52.376;4.628;2024-01-15T21:08:24;100635.47;;;4.76;68.47
24752;BME280;27246;52.376;4.628;2024-01-15T21:13:26;100649.53;;;4.81;68.77
24752;BME280;27246;52.376;4.628;2024-01-15T21:18:28;100640.19;;;4.84;68.88
24752;BME280;27246;52.376;4.628;2024-01-15T21:23:30;100633.47;;;4.78;69.33
24752;BME280;27246;52.376;4.628;2024-01-15T21:28:33;100636.63;;;4.84;69.30
24752;BME280;27246;52.376;4.628;2024-01-15T21:33:35;100638.88;;;4.98;69.83
24752;BME280;27246;52.376;4.628;2024-01-15T21:38:38;100632.81;;;5.14;66.08
24752;BME280;27246;52.376;4.628;2024-01-15T21:43:40;100652.66;;;4.87;61.63
24752;BME280;27246;52.376;4.628;2024-01-15T21:48:42;100647.78;;;4.80;62.27
24752;BME280;27246;52.376;4.628;2024-01-15T21:53:44;100649.09;;;4.86;63.97
24752;BME280;27246;52.376;4.628;2024-01-15T21:58:46;100654.47;;;5.25;61.71
24752;BME280;27246;52.376;4.628;2024-01-15T22:03:48;100656.91;;;5.09;60.05
24752;BME280;27246;52.376;4.628;2024-01-15T22:08:50;100667.53;;;5.21;60.53
24752;BME280;27246;52.376;4.628;2024-01-15T22:13:52;100672.03;;;5.03;61.13
24752;BME280;27246;52.376;4.628;2024-01-15T22:18:55;100668.66;;;5.19;60.69
24752;BME280;27246;52.376;4.628;2024-01-15T22:24:01;100679.63;;;4.90;59.98
24752;BME280;27246;52.376;4.628;2024-01-15T22:29:03;100681.06;;;4.74;59.05
24752;BME280;27246;52.376;4.628;2024-01-15T22:34:06;100682.22;;;4.81;59.84
24752;BME280;27246;52.376;4.628;2024-01-15T22:39:07;100696.13;;;4.88;59.75
24752;BME280;27246;52.376;4.628;2024-01-15T22:44:09;100697.41;;;4.84;59.44
24752;BME280;27246;52.376;4.628;2024-01-15T22:49:11;100706.88;;;4.90;60.51
24752;BME280;27246;52.376;4.628;2024-01-15T22:54:14;100714.03;;;4.91;60.53
24752;BME280;27246;52.376;4.628;2024-01-15T22:59:15;100710.31;;;4.92;60.06
24752;BME280;27246;52.376;4.628;2024-01-15T23:04:23;100721.50;;;4.89;59.20
24752;BME280;27246;52.376;4.628;2024-01-15T23:09:25;100729.78;;;5.26;59.33
24752;BME280;27246;52.376;4.628;2024-01-15T23:14:27;100731.13;;;4.93;61.05
24752;BME280;27246;52.376;4.628;2024-01-15T23:19:29;100733.69;;;5.14;59.95
24752;BME280;27246;52.376;4.628;2024-01-15T23:24:31;100728.69;;;4.90;60.97
24752;BME280;27246;52.376;4.628;2024-01-15T23:29:33;100732.25;;;5.10;61.59
24752;BME280;27246;52.376;4.628;2024-01-15T23:34:34;100733.81;;;5.12;59.08
24752;BME280;27246;52.376;4.628;2024-01-15T23:39:37;100766.91;;;5.37;61.77
24752;BME280;27246;52.376;4.628;2024-01-15T23:44:39;100760.63;;;5.27;62.83
24752;BME280;27246;52.376;4.628;2024-01-15T23:49:41;100765.47;;;5.52;62.99
24752;BME280;27246;52.376;4.628;2024-01-15T23:54:43;100763.09;;;5.10;64.62
24752;BME280;27246;52.376;4.628;2024-01-15T23:59:45;100760.78;;;4.76;66.62
